createdAt,value
2023-04-22T00:00:50.777Z,2.33
2023-04-22T00:03:18.008Z,1.80
2023-04-22T00:05:45.410Z,2.20
2023-04-22T00:08:12.458Z,2.20
2023-04-22T00:10:39.585Z,2.33
2023-04-22T00:13:06.801Z,1.77
2023-04-22T00:15:34.134Z,2.03
2023-04-22T00:18:01.340Z,1.90
2023-04-22T00:20:29.493Z,2.53
2023-04-22T00:22:56.721Z,1.40
2023-04-22T00:25:23.853Z,1.83
2023-04-22T00:27:51.002Z,1.57
2023-04-22T00:30:18.294Z,1.70
2023-04-22T00:32:45.471Z,1.73
2023-04-22T00:35:12.593Z,1.90
2023-04-22T00:37:39.897Z,2.30
2023-04-22T00:40:08.368Z,1.90
2023-04-22T00:42:37.390Z,1.93
2023-04-22T00:45:09.977Z,1.87
2023-04-22T00:47:37.272Z,2.60
2023-04-22T00:50:05.615Z,2.10
2023-04-22T00:52:32.780Z,2.23
2023-04-22T00:55:00.543Z,1.80
2023-04-22T00:57:30.122Z,2.40
2023-04-22T00:59:57.258Z,1.70
2023-04-22T01:02:25.448Z,2.37
2023-04-22T01:04:56.474Z,1.83
2023-04-22T01:07:24.244Z,2.03
2023-04-22T01:09:51.697Z,1.87
2023-04-22T01:12:18.913Z,2.03
2023-04-22T01:14:46.379Z,2.10
2023-04-22T01:17:14.605Z,2.03
2023-04-22T01:19:42.878Z,1.93
2023-04-22T01:22:14.014Z,1.80
2023-04-22T01:24:41.658Z,2.10
2023-04-22T01:27:09.389Z,2.30
2023-04-22T01:29:39.986Z,1.83
2023-04-22T01:32:07.583Z,1.30
2023-04-22T01:34:34.978Z,1.53
2023-04-22T01:37:02.150Z,1.63
2023-04-22T01:39:34.727Z,1.80
2023-04-22T01:42:03.692Z,2.27
2023-04-22T01:44:30.839Z,1.70
2023-04-22T01:46:58.014Z,1.37
2023-04-22T01:49:25.294Z,1.37
2023-04-22T01:51:52.493Z,2.00
2023-04-22T01:54:20.338Z,1.70
2023-04-22T01:56:55.222Z,1.67
2023-04-22T01:59:22.383Z,1.67
2023-04-22T02:01:50.031Z,1.43
2023-04-22T02:04:17.401Z,2.33
2023-04-22T02:06:44.513Z,1.40
2023-04-22T02:09:11.649Z,1.70
2023-04-22T02:11:38.863Z,1.80
2023-04-22T02:14:05.959Z,1.00
2023-04-22T02:16:33.391Z,2.30
2023-04-22T02:19:02.003Z,1.83
2023-04-22T02:21:32.367Z,0.87
2023-04-22T02:23:59.563Z,1.40
2023-04-22T02:26:26.824Z,0.87
2023-04-22T02:28:53.920Z,1.53
2023-04-22T02:31:21.171Z,1.30
2023-04-22T02:33:48.379Z,1.50
2023-04-22T02:36:15.533Z,1.47
2023-04-22T02:38:42.770Z,1.50
2023-04-22T02:41:09.935Z,1.43
2023-04-22T02:43:37.223Z,1.50
2023-04-22T02:46:04.962Z,1.20
2023-04-22T02:48:32.207Z,1.70
2023-04-22T02:50:59.426Z,1.60
2023-04-22T02:53:26.580Z,0.93
2023-04-22T02:55:55.866Z,1.10
2023-04-22T02:58:23.059Z,1.60
2023-04-22T03:00:50.421Z,1.70
2023-04-22T03:03:17.876Z,1.53
2023-04-22T03:05:45.102Z,1.57
2023-04-22T03:08:12.168Z,1.33
2023-04-22T03:10:39.466Z,1.87
2023-04-22T03:13:06.537Z,2.00
2023-04-22T03:15:33.635Z,2.37
2023-04-22T03:18:00.794Z,0.97
2023-04-22T03:20:28.013Z,1.80
2023-04-22T03:22:55.105Z,1.83
2023-04-22T03:25:23.015Z,1.37
2023-04-22T03:27:50.245Z,1.53
2023-04-22T03:30:17.376Z,1.90
2023-04-22T03:32:44.665Z,1.43
2023-04-22T03:35:11.852Z,1.83
2023-04-22T03:37:39.060Z,1.17
2023-04-22T03:40:07.545Z,1.67
2023-04-22T03:42:34.776Z,1.20
2023-04-22T03:45:01.929Z,1.37
2023-04-22T03:47:29.170Z,1.30
2023-04-22T03:49:56.355Z,1.53
2023-04-22T03:52:23.551Z,1.20
2023-04-22T03:54:50.850Z,1.47
2023-04-22T03:57:18.083Z,1.73
2023-04-22T03:59:45.261Z,1.87
2023-04-22T04:02:12.536Z,1.43
2023-04-22T04:04:40.045Z,1.50
2023-04-22T04:07:09.967Z,1.80
2023-04-22T04:09:37.747Z,1.97
2023-04-22T04:12:05.436Z,2.00
2023-04-22T04:14:32.528Z,0.93
2023-04-22T04:16:59.964Z,1.33
2023-04-22T04:19:27.246Z,1.63
2023-04-22T04:21:54.401Z,1.93
2023-04-22T04:24:21.832Z,2.50
2023-04-22T04:26:49.419Z,1.87
2023-04-22T04:29:16.837Z,1.30
2023-04-22T04:31:44.079Z,1.20
2023-04-22T04:34:11.398Z,2.33
2023-04-22T04:36:40.021Z,1.57
2023-04-22T04:39:08.496Z,0.97
2023-04-22T04:41:35.718Z,2.03
2023-04-22T04:44:03.303Z,2.50
2023-04-22T04:46:30.578Z,2.23
2023-04-22T04:48:58.907Z,1.50
2023-04-22T04:51:26.738Z,2.57
2023-04-22T04:53:56.364Z,2.00
2023-04-22T04:56:23.833Z,2.13
2023-04-22T04:58:50.972Z,1.93
2023-04-22T05:01:18.384Z,2.47
2023-04-22T05:03:45.840Z,2.43
2023-04-22T05:06:13.108Z,2.13
2023-04-22T05:08:40.383Z,1.67
2023-04-22T05:11:07.531Z,2.57
2023-04-22T05:13:34.740Z,2.43
2023-04-22T05:16:02.372Z,2.07
2023-04-22T05:18:29.634Z,2.50
2023-04-22T05:20:58.931Z,2.57
2023-04-22T05:23:27.249Z,2.37
2023-04-22T05:25:54.419Z,2.23
2023-04-22T05:28:21.471Z,2.60
2023-04-22T05:30:48.790Z,2.50
2023-04-22T05:33:16.065Z,2.27
2023-04-22T05:35:43.327Z,2.07
2023-04-22T05:38:10.870Z,1.80
2023-04-22T05:40:38.006Z,2.43
2023-04-22T05:43:05.287Z,2.67
2023-04-22T05:45:33.112Z,2.47
2023-04-22T05:48:00.414Z,2.63
2023-04-22T05:50:27.803Z,3.03
2023-04-22T05:52:54.956Z,2.43
2023-04-22T05:55:22.211Z,2.73
2023-04-22T05:57:50.797Z,2.63
2023-04-22T06:00:18.667Z,2.40
2023-04-22T06:02:46.040Z,2.97
2023-04-22T06:05:13.557Z,2.40
2023-04-22T06:07:41.177Z,2.67
2023-04-22T06:10:09.420Z,2.40
2023-04-22T06:12:36.560Z,2.60
2023-04-22T06:15:05.112Z,2.90
2023-04-22T06:17:32.343Z,2.30
2023-04-22T06:19:59.588Z,3.27
2023-04-22T06:22:26.887Z,3.03
2023-04-22T06:24:54.205Z,2.77
2023-04-22T06:27:21.518Z,2.47
2023-04-22T06:29:48.865Z,2.13
2023-04-22T06:32:16.162Z,1.97
2023-04-22T06:34:46.300Z,2.57
2023-04-22T06:37:13.644Z,2.50
2023-04-22T06:39:41.036Z,2.23
2023-04-22T06:42:08.940Z,3.13
2023-04-22T06:44:36.404Z,2.20
2023-04-22T06:47:03.943Z,2.47
2023-04-22T06:49:31.319Z,2.80
2023-04-22T06:52:07.073Z,3.40
2023-04-22T06:54:34.366Z,2.93
2023-04-22T06:57:06.979Z,2.93
2023-04-22T06:59:34.155Z,2.80
2023-04-22T07:02:04.210Z,2.97
2023-04-22T07:04:31.944Z,2.30
2023-04-22T07:06:59.422Z,2.43
2023-04-22T07:09:27.121Z,2.97
2023-04-22T07:11:54.397Z,2.67
2023-04-22T07:14:21.637Z,2.50
2023-04-22T07:16:49.056Z,2.83
2023-04-22T07:19:26.747Z,2.63
2023-04-22T07:22:34.895Z,2.57
2023-04-22T07:25:02.611Z,2.60
2023-04-22T07:27:32.384Z,3.07
2023-04-22T07:29:59.658Z,2.83
2023-04-22T07:32:26.952Z,2.50
2023-04-22T07:34:56.530Z,2.27
2023-04-22T07:37:23.945Z,3.40
2023-04-22T07:40:14.670Z,2.17
2023-04-22T07:43:20.639Z,2.30
2023-04-22T07:45:47.926Z,8.30
2023-04-22T07:48:15.430Z,2.00
2023-04-22T07:50:45.178Z,2.10
2023-04-22T07:53:15.076Z,2.43
2023-04-22T07:55:45.698Z,2.63
2023-04-22T07:58:20.627Z,2.40
2023-04-22T08:00:52.903Z,2.53
2023-04-22T08:03:20.369Z,2.13
2023-04-22T08:05:47.708Z,2.00
2023-04-22T08:08:15.538Z,2.33
2023-04-22T08:10:42.862Z,2.40
2023-04-22T08:13:12.348Z,2.30
2023-04-22T08:15:40.283Z,3.30
2023-04-22T08:18:07.539Z,2.13
2023-04-22T08:20:34.655Z,2.40
2023-04-22T08:23:01.875Z,2.00
2023-04-22T08:25:31.777Z,1.97
2023-04-22T08:28:00.240Z,2.00
2023-04-22T08:30:27.499Z,1.90
2023-04-22T08:32:54.905Z,1.73
2023-04-22T08:35:29.984Z,2.20
2023-04-22T08:38:01.751Z,1.77
2023-04-22T08:40:50.137Z,1.73
2023-04-22T08:43:20.938Z,1.47
2023-04-22T08:45:52.161Z,2.27
2023-04-22T08:48:37.770Z,2.17
2023-04-22T08:51:10.183Z,2.03
2023-04-22T08:53:57.820Z,1.70
2023-04-22T08:56:26.049Z,2.07
2023-04-22T08:58:54.980Z,2.10
2023-04-22T09:01:23.265Z,1.90
2023-04-22T09:03:51.055Z,2.33
2023-04-22T09:06:28.922Z,2.40
2023-04-22T09:08:59.020Z,2.57
2023-04-22T09:11:32.406Z,1.63
2023-04-22T09:13:59.547Z,1.80
2023-04-22T09:16:26.647Z,1.97
2023-04-22T09:18:53.819Z,1.80
2023-04-22T09:21:20.989Z,2.10
2023-04-22T09:23:59.046Z,2.40
2023-04-22T09:26:39.863Z,2.57
2023-04-22T09:29:09.523Z,2.40
2023-04-22T09:31:40.896Z,2.03
2023-04-22T09:34:08.974Z,1.80
2023-04-22T09:36:44.890Z,1.77
2023-04-22T09:39:15.962Z,2.13
2023-04-22T09:41:43.432Z,2.20
2023-04-22T09:44:20.694Z,2.23
2023-04-22T09:46:58.770Z,2.40
2023-04-22T09:49:28.075Z,1.97
2023-04-22T09:51:58.411Z,2.30
2023-04-22T09:54:25.693Z,2.50
2023-04-22T09:56:54.024Z,2.00
2023-04-22T09:59:26.639Z,2.60
2023-04-22T10:02:09.603Z,2.83
2023-04-22T10:04:44.641Z,2.73
2023-04-22T10:07:14.532Z,2.00
2023-04-22T10:09:42.326Z,2.00
2023-04-22T10:12:09.702Z,2.07
2023-04-22T10:14:36.925Z,2.83
2023-04-22T10:17:06.003Z,2.67
2023-04-22T10:19:34.953Z,1.87
2023-04-22T10:22:07.568Z,2.10
2023-04-22T10:24:39.836Z,2.17
2023-04-22T10:27:08.422Z,2.17
2023-04-22T10:29:46.906Z,1.83
2023-04-22T10:32:20.023Z,1.63
2023-04-22T10:34:48.311Z,1.70
2023-04-22T10:37:19.743Z,1.90
2023-04-22T10:40:08.129Z,2.43
2023-04-22T10:42:37.167Z,1.90
2023-04-22T10:45:05.814Z,1.73
2023-04-22T10:47:35.869Z,2.13
2023-04-22T10:50:26.558Z,2.30
2023-04-22T10:53:38.986Z,1.70
2023-04-22T10:56:18.156Z,2.10
2023-04-22T10:58:46.085Z,1.83
2023-04-22T11:01:16.624Z,2.03
2023-04-22T11:03:43.785Z,2.23
2023-04-22T11:06:27.895Z,2.03
2023-04-22T11:09:16.794Z,2.40
2023-04-22T11:11:44.062Z,2.43
2023-04-22T11:14:11.477Z,2.13
2023-04-22T11:16:38.664Z,1.60
2023-04-22T11:19:07.051Z,2.27
2023-04-22T11:21:35.500Z,1.90
2023-04-22T11:24:06.309Z,1.90
2023-04-22T11:26:37.775Z,1.90
2023-04-22T11:29:04.968Z,2.07
2023-04-22T11:31:32.343Z,2.30
2023-04-22T11:34:00.518Z,2.00
2023-04-22T11:36:27.850Z,2.10
2023-04-22T11:38:56.594Z,2.17
2023-04-22T11:41:23.978Z,1.80
2023-04-22T11:43:51.285Z,2.60
2023-04-22T11:46:38.559Z,1.80
2023-04-22T11:49:16.292Z,2.30
2023-04-22T11:51:57.404Z,2.17
2023-04-22T11:54:36.211Z,2.10
2023-04-22T11:57:15.660Z,1.97
2023-04-22T11:59:44.295Z,1.70
2023-04-22T12:02:11.483Z,1.90
2023-04-22T12:04:43.928Z,2.00
2023-04-22T12:07:11.807Z,2.37
2023-04-22T12:09:40.282Z,2.33
2023-04-22T12:12:07.673Z,1.97
2023-04-22T12:14:36.020Z,1.60
2023-04-22T12:17:15.525Z,2.07
2023-04-22T12:19:48.465Z,1.60
2023-04-22T12:22:34.608Z,2.40
2023-04-22T12:25:04.316Z,1.90
2023-04-22T12:27:32.113Z,2.03
2023-04-22T12:29:59.290Z,2.20
2023-04-22T12:32:27.576Z,1.40
2023-04-22T12:34:54.754Z,1.83
2023-04-22T12:37:22.056Z,1.90
2023-04-22T12:39:51.530Z,2.03
2023-04-22T12:42:27.596Z,2.30
2023-04-22T12:44:54.730Z,1.87
2023-04-22T12:47:21.884Z,2.90
2023-04-22T12:49:49.499Z,1.97
2023-04-22T12:52:16.732Z,1.57
2023-04-22T12:54:43.990Z,2.63
2023-04-22T12:57:12.210Z,2.03
2023-04-22T12:59:39.590Z,1.90
2023-04-22T13:02:07.145Z,2.77
2023-04-22T13:04:45.839Z,2.03
2023-04-22T13:07:12.996Z,2.30
2023-04-22T13:09:40.580Z,2.30
2023-04-22T13:12:09.080Z,1.70
2023-04-22T13:14:36.316Z,1.90
2023-04-22T13:17:04.182Z,2.03
2023-04-22T13:19:31.990Z,1.97
2023-04-22T13:21:59.088Z,2.10
2023-04-22T13:24:26.618Z,2.23
2023-04-22T13:26:53.804Z,2.10
2023-04-22T13:29:20.877Z,2.00
2023-04-22T13:31:47.990Z,2.20
2023-04-22T13:34:18.357Z,1.90
2023-04-22T13:36:45.944Z,1.97
2023-04-22T13:39:13.323Z,2.50
2023-04-22T13:41:40.624Z,2.50
2023-04-22T13:44:07.685Z,2.60
2023-04-22T13:46:35.019Z,1.97
2023-04-22T13:49:02.113Z,2.20
2023-04-22T13:51:30.883Z,1.93
2023-04-22T13:53:58.659Z,2.17
2023-04-22T13:56:25.990Z,2.27
2023-04-22T13:58:54.442Z,2.07
2023-04-22T14:01:21.752Z,3.00
2023-04-22T14:03:51.440Z,2.23
2023-04-22T14:06:19.004Z,2.03
2023-04-22T14:08:46.872Z,1.80
2023-04-22T14:11:14.229Z,2.27
2023-04-22T14:13:41.488Z,1.60
2023-04-22T14:16:10.114Z,1.87
2023-04-22T14:18:40.365Z,2.33
2023-04-22T14:21:09.540Z,1.97
2023-04-22T14:23:38.952Z,2.30
2023-04-22T14:26:10.773Z,1.97
2023-04-22T14:28:40.002Z,2.23
2023-04-22T14:31:18.652Z,2.47
2023-04-22T14:33:53.355Z,1.67
2023-04-22T14:36:20.542Z,2.57
2023-04-22T14:38:49.902Z,1.57
2023-04-22T14:41:17.147Z,1.87
2023-04-22T14:43:44.289Z,2.07
2023-04-22T14:46:14.397Z,2.30
2023-04-22T14:48:41.692Z,1.70
2023-04-22T14:51:08.875Z,1.93
2023-04-22T14:53:37.588Z,2.37
2023-04-22T14:56:04.804Z,1.77
2023-04-22T14:58:32.072Z,2.67
2023-04-22T15:01:01.769Z,2.20
2023-04-22T15:03:29.319Z,2.63
2023-04-22T15:05:56.717Z,2.10
2023-04-22T15:08:25.510Z,2.07
2023-04-22T15:10:52.678Z,2.33
2023-04-22T15:13:20.078Z,2.07
2023-04-22T15:15:47.505Z,2.33
2023-04-22T15:18:14.782Z,1.90
2023-04-22T15:20:44.975Z,2.17
2023-04-22T15:23:12.232Z,2.47
2023-04-22T15:25:39.363Z,2.40
2023-04-22T15:28:06.742Z,3.03
2023-04-22T15:30:36.491Z,2.93
2023-04-22T15:33:05.315Z,1.73
2023-04-22T15:35:32.555Z,2.37
2023-04-22T15:38:00.622Z,1.87
2023-04-22T15:40:27.716Z,1.83
2023-04-22T15:43:03.725Z,2.30
2023-04-22T15:45:33.871Z,1.90
2023-04-22T15:48:01.471Z,1.87
2023-04-22T15:50:29.412Z,2.47
2023-04-22T15:52:56.583Z,2.37
2023-04-22T15:55:23.897Z,1.87
2023-04-22T15:57:51.046Z,2.23
2023-04-22T16:00:19.360Z,1.83
2023-04-22T16:02:56.284Z,2.13
2023-04-22T16:05:25.305Z,2.20
2023-04-22T16:08:02.490Z,2.50
2023-04-22T16:10:34.038Z,2.50
2023-04-22T16:13:01.471Z,2.47
2023-04-22T16:15:28.757Z,1.93
2023-04-22T16:17:55.969Z,2.40
2023-04-22T16:20:23.576Z,2.10
2023-04-22T16:22:50.746Z,1.93
2023-04-22T16:25:21.036Z,1.90
2023-04-22T16:27:48.518Z,2.27
2023-04-22T16:30:16.434Z,2.37
2023-04-22T16:32:46.596Z,2.43
2023-04-22T16:35:13.885Z,1.67
2023-04-22T16:37:41.389Z,2.00
2023-04-22T16:40:11.625Z,2.23
2023-04-22T16:42:38.908Z,2.20
2023-04-22T16:45:08.068Z,1.93
2023-04-22T16:47:35.484Z,7.97
2023-04-22T16:50:03.911Z,4.20
2023-04-22T16:52:31.301Z,2.80
2023-04-22T16:54:58.729Z,2.67
2023-04-22T16:57:26.036Z,2.13
2023-04-22T16:59:53.244Z,2.50
2023-04-22T17:02:20.761Z,2.50
2023-04-22T17:04:48.100Z,2.17
2023-04-22T17:07:15.683Z,2.40
2023-04-22T17:09:43.139Z,1.97
2023-04-22T17:12:10.686Z,2.33
2023-04-22T17:14:37.950Z,2.20
2023-04-22T17:17:07.892Z,2.50
2023-04-22T17:19:35.122Z,2.67
2023-04-22T17:22:02.408Z,2.40
2023-04-22T17:24:30.672Z,3.10
2023-04-22T17:26:57.943Z,2.03
2023-04-22T17:29:25.394Z,2.17
2023-04-22T17:31:53.008Z,2.00
2023-04-22T17:34:20.435Z,2.40
2023-04-22T17:36:47.623Z,2.03
2023-04-22T17:39:15.473Z,2.10
2023-04-22T17:41:44.727Z,2.53
2023-04-22T17:44:12.498Z,2.00
2023-04-22T17:46:50.666Z,2.93
2023-04-22T17:49:18.065Z,2.37
2023-04-22T17:51:45.549Z,2.20
2023-04-22T17:54:13.304Z,2.60
2023-04-22T17:56:40.464Z,2.93
2023-04-22T17:59:11.491Z,2.50
2023-04-22T18:01:42.125Z,2.73
2023-04-22T18:04:09.364Z,2.30
2023-04-22T18:06:36.743Z,2.47
2023-04-22T18:09:05.319Z,2.60
2023-04-22T18:11:32.928Z,2.43
2023-04-22T18:14:00.848Z,3.33
2023-04-22T18:16:29.401Z,3.03
2023-04-22T18:18:56.719Z,3.60
2023-04-22T18:21:24.113Z,2.87
2023-04-22T18:23:53.272Z,3.47
2023-04-22T18:26:20.768Z,3.37
2023-04-22T18:28:50.146Z,2.87
2023-04-22T18:31:17.857Z,3.30
2023-04-22T18:33:45.404Z,2.87
2023-04-22T18:36:12.650Z,3.20
2023-04-22T18:38:42.178Z,3.63
2023-04-22T18:41:13.699Z,3.63
2023-04-22T18:43:40.978Z,3.90
2023-04-22T18:46:08.692Z,3.50
2023-04-22T18:48:39.443Z,3.30
2023-04-22T18:51:14.218Z,3.00
2023-04-22T18:53:44.380Z,3.57
2023-04-22T18:56:11.778Z,2.87
2023-04-22T18:58:38.946Z,2.97
2023-04-22T19:01:08.477Z,3.20
2023-04-22T19:03:35.987Z,3.10
2023-04-22T19:06:03.353Z,3.07
2023-04-22T19:08:30.568Z,2.70
2023-04-22T19:10:57.800Z,2.90
2023-04-22T19:13:29.731Z,3.10
2023-04-22T19:16:05.027Z,3.00
2023-04-22T19:18:32.403Z,2.70
2023-04-22T19:20:59.653Z,3.20
2023-04-22T19:23:27.013Z,3.00
2023-04-22T19:25:56.972Z,4.07
2023-04-22T19:28:24.173Z,3.90
2023-04-22T19:30:51.983Z,3.23
2023-04-22T19:33:19.495Z,3.07
2023-04-22T19:35:47.022Z,4.73
2023-04-22T19:38:19.211Z,4.83
2023-04-22T19:40:46.481Z,4.63
2023-04-22T19:43:14.019Z,4.40
2023-04-22T19:45:41.263Z,4.70
2023-04-22T19:48:08.934Z,5.10
2023-04-22T19:50:36.370Z,4.73
2023-04-22T19:53:07.635Z,4.90
2023-04-22T19:55:36.839Z,4.87
2023-04-22T19:58:04.792Z,4.23
2023-04-22T20:00:33.561Z,5.00
2023-04-22T20:03:01.529Z,4.67
2023-04-22T20:05:29.671Z,5.23
2023-04-22T20:08:01.529Z,5.43
2023-04-22T20:10:40.333Z,5.10
2023-04-22T20:13:08.093Z,5.87
2023-04-22T20:15:36.306Z,4.77
2023-04-22T20:18:27.045Z,5.03
2023-04-22T20:20:57.631Z,5.83
2023-04-22T20:23:27.209Z,5.37
2023-04-22T20:25:56.133Z,5.23
2023-04-22T20:29:01.400Z,5.33
2023-04-22T20:31:35.403Z,4.77
2023-04-22T20:34:05.004Z,5.67
2023-04-22T20:36:33.086Z,4.60
2023-04-22T20:39:05.340Z,5.17
2023-04-22T20:41:54.415Z,4.97
2023-04-22T20:44:22.296Z,4.47
2023-04-22T20:46:49.756Z,3.40
2023-04-22T20:49:17.416Z,4.60
2023-04-22T20:51:44.708Z,4.40
2023-04-22T20:54:27.738Z,4.10
2023-04-22T20:56:57.910Z,3.50
2023-04-22T20:59:28.103Z,4.20
2023-04-22T21:02:22.647Z,4.23
2023-04-22T21:04:48.447Z,4.37
2023-04-22T21:07:21.523Z,5.20
2023-04-22T21:09:55.188Z,3.83
2023-04-22T21:12:27.148Z,4.47
2023-04-22T21:14:55.168Z,4.73
2023-04-22T21:17:30.681Z,3.57
2023-04-22T21:19:59.072Z,3.53
2023-04-22T21:22:26.933Z,3.40
2023-04-22T21:24:54.665Z,3.27
2023-04-22T21:27:25.720Z,3.43
2023-04-22T21:30:04.143Z,2.93
2023-04-22T21:32:35.299Z,3.47
2023-04-22T21:35:02.784Z,3.10
2023-04-22T21:37:30.334Z,4.27
2023-04-22T21:39:57.576Z,4.20
2023-04-22T21:42:25.956Z,3.00
2023-04-22T21:44:53.205Z,3.30
2023-04-22T21:47:22.901Z,2.93
2023-04-22T21:49:50.569Z,2.93
2023-04-22T21:52:17.779Z,3.33
2023-04-22T21:54:45.425Z,3.67
2023-04-22T21:57:15.081Z,3.13
2023-04-22T21:59:42.357Z,3.07
2023-04-22T22:02:19.066Z,3.40
2023-04-22T22:04:46.788Z,2.13
2023-04-22T22:07:17.575Z,4.17
2023-04-22T22:09:46.511Z,3.33
2023-04-22T22:12:15.658Z,3.73
2023-04-22T22:14:44.027Z,2.87
2023-04-22T22:17:11.879Z,2.57
2023-04-22T22:19:39.316Z,4.20
2023-04-22T22:22:06.658Z,2.87
2023-04-22T22:24:33.978Z,3.27
2023-04-22T22:27:01.879Z,2.73
2023-04-22T22:29:29.166Z,2.63
2023-04-22T22:31:56.555Z,3.70
2023-04-22T22:34:23.872Z,2.87
2023-04-22T22:36:51.216Z,2.70
2023-04-22T22:39:18.680Z,3.03
2023-04-22T22:41:45.890Z,3.50
2023-04-22T22:44:13.038Z,3.13
2023-04-22T22:46:40.792Z,3.27
2023-04-22T22:49:08.368Z,4.03
2023-04-22T22:51:37.612Z,3.57
2023-04-22T22:54:05.778Z,3.00
2023-04-22T22:56:33.100Z,2.83
2023-04-22T22:59:00.685Z,2.33
2023-04-22T23:01:27.978Z,2.70
2023-04-22T23:03:55.533Z,3.23
2023-04-22T23:06:23.018Z,2.23
2023-04-22T23:08:50.358Z,2.63
2023-04-22T23:11:17.758Z,3.37
2023-04-22T23:13:45.025Z,2.87
2023-04-22T23:16:12.351Z,2.87
2023-04-22T23:18:40.713Z,2.60
2023-04-22T23:21:08.539Z,2.90
2023-04-22T23:23:37.129Z,2.57
2023-04-22T23:26:04.853Z,2.60
2023-04-22T23:28:34.985Z,2.67
2023-04-22T23:31:12.215Z,2.73
2023-04-22T23:34:02.196Z,2.37
2023-04-22T23:36:37.369Z,2.27
2023-04-22T23:39:11.029Z,2.17
2023-04-22T23:41:42.412Z,2.57
2023-04-22T23:44:09.744Z,2.97
2023-04-22T23:46:37.223Z,2.30
2023-04-22T23:49:07.396Z,2.07
2023-04-22T23:51:35.218Z,2.47
2023-04-22T23:54:03.740Z,2.83
2023-04-22T23:56:31.457Z,2.40
2023-04-22T23:58:59.194Z,2.80
